sensor_id;sensor_type;location;lat;lon;timestamp;pressure;altitude;pressure_sealevel;temperature;humidity
55456;BME280;63021;52.836;6.376;2024-02-23T00:01:05;98422.41;;;5.03;81.89
55456;BME280;63021;52.836;6.376;2024-02-23T00:03:30;98428.47;;;5.04;81.75
55456;BME280;63021;52.836;6.376;2024-02-23T00:05:56;98450.59;;;5.03;81.94
55456;BME280;63021;52.836;6.376;2024-02-23T00:08:21;98462.63;;;4.97;81.75
55456;BME280;63021;52.836;6.376;2024-02-23T00:10:46;98469.72;;;4.97;82.05
55456;BME280;63021;52.836;6.376;2024-02-23T00:13:12;98492.78;;;4.95;81.85
55456;BME280;63021;52.836;6.376;2024-02-23T00:15:37;98506.66;;;4.89;81.85
55456;BME280;63021;52.836;6.376;2024-02-23T00:18:03;98524.13;;;4.81;81.58
55456;BME280;63021;52.836;6.376;2024-02-23T00:20:29;98494.66;;;4.69;81.68
55456;BME280;63021;52.836;6.376;2024-02-23T00:22:55;98506.19;;;4.68;81.29
55456;BME280;63021;52.836;6.376;2024-02-23T00:25:20;98518.41;;;4.61;81.14
55456;BME280;63021;52.836;6.376;2024-02-23T00:27:45;98527.28;;;4.52;81.48
55456;BME280;63021;52.836;6.376;2024-02-23T00:30:13;98547.06;;;4.40;81.56
55456;BME280;63021;52.836;6.376;2024-02-23T00:32:38;98555.75;;;4.32;81.29
55456;BME280;63021;52.836;6.376;2024-02-23T00:35:04;98564.47;;;4.24;81.93
55456;BME280;63021;52.836;6.376;2024-02-23T00:37:29;98554.25;;;4.13;81.76
55456;BME280;63021;52.836;6.376;2024-02-23T00:40:00;98587.16;;;4.09;81.83
55456;BME280;63021;52.836;6.376;2024-02-23T00:42:26;98564.75;;;4.05;81.58
55456;BME280;63021;52.836;6.376;2024-02-23T00:44:51;98572.97;;;3.93;81.82
55456;BME280;63021;52.836;6.376;2024-02-23T00:47:16;98568.69;;;3.92;81.92
55456;BME280;63021;52.836;6.376;2024-02-23T00:49:42;98574.13;;;3.91;82.05
55456;BME280;63021;52.836;6.376;2024-02-23T00:52:07;98565.38;;;3.90;82.36
55456;BME280;63021;52.836;6.376;2024-02-23T00:54:33;98581.84;;;3.92;82.70
55456;BME280;63021;52.836;6.376;2024-02-23T00:56:58;98587.13;;;3.92;82.29
55456;BME280;63021;52.836;6.376;2024-02-23T00:59:23;98571.97;;;3.94;82.58
55456;BME280;63021;52.836;6.376;2024-02-23T01:01:49;98582.69;;;3.93;82.48
55456;BME280;63021;52.836;6.376;2024-02-23T01:04:14;98575.13;;;3.98;82.42
55456;BME280;63021;52.836;6.376;2024-02-23T01:06:40;98592.56;;;3.99;82.75
55456;BME280;63021;52.836;6.376;2024-02-23T01:09:05;98571.16;;;4.02;83.08
55456;BME280;63021;52.836;6.376;2024-02-23T01:11:30;98582.53;;;4.03;83.19
55456;BME280;63021;52.836;6.376;2024-02-23T01:13:56;98584.16;;;4.04;82.91
55456;BME280;63021;52.836;6.376;2024-02-23T01:16:22;98576.44;;;4.02;82.66
55456;BME280;63021;52.836;6.376;2024-02-23T01:18:47;98576.94;;;4.06;82.99
55456;BME280;63021;52.836;6.376;2024-02-23T01:21:13;98579.09;;;4.10;83.05
55456;BME280;63021;52.836;6.376;2024-02-23T01:23:39;98583.88;;;4.07;82.71
55456;BME280;63021;52.836;6.376;2024-02-23T01:26:04;98586.66;;;4.13;83.13
55456;BME280;63021;52.836;6.376;2024-02-23T01:28:29;98589.97;;;4.15;83.11
55456;BME280;63021;52.836;6.376;2024-02-23T01:30:55;98587.84;;;4.19;83.25
55456;BME280;63021;52.836;6.376;2024-02-23T01:33:20;98586.69;;;4.22;82.59
55456;BME280;63021;52.836;6.376;2024-02-23T01:35:46;98591.16;;;4.21;82.97
55456;BME280;63021;52.836;6.376;2024-02-23T01:38:11;98592.16;;;4.28;82.96
55456;BME280;63021;52.836;6.376;2024-02-23T01:40:37;98606.13;;;4.29;83.39
55456;BME280;63021;52.836;6.376;2024-02-23T01:43:03;98593.31;;;4.34;83.21
55456;BME280;63021;52.836;6.376;2024-02-23T01:45:30;98609.75;;;4.36;83.67
55456;BME280;63021;52.836;6.376;2024-02-23T01:47:56;98596.44;;;4.38;83.61
55456;BME280;63021;52.836;6.376;2024-02-23T01:50:23;98602.22;;;4.41;83.69
55456;BME280;63021;52.836;6.376;2024-02-23T01:52:49;98629.72;;;4.47;83.29
55456;BME280;63021;52.836;6.376;2024-02-23T01:55:16;98620.63;;;4.49;83.20
55456;BME280;63021;52.836;6.376;2024-02-23T01:57:42;98624.44;;;4.55;83.71
55456;BME280;63021;52.836;6.376;2024-02-23T02:00:09;98646.03;;;4.59;83.83
55456;BME280;63021;52.836;6.376;2024-02-23T02:02:38;98649.66;;;4.58;83.57
55456;BME280;63021;52.836;6.376;2024-02-23T02:05:04;98646.19;;;4.65;83.49
55456;BME280;63021;52.836;6.376;2024-02-23T02:07:29;98638.47;;;4.72;83.36
55456;BME280;63021;52.836;6.376;2024-02-23T02:09:55;98651.97;;;4.77;83.89
55456;BME280;63021;52.836;6.376;2024-02-23T02:12:27;98640.44;;;4.78;83.86
55456;BME280;63021;52.836;6.376;2024-02-23T02:14:52;98655.44;;;4.86;83.98
55456;BME280;63021;52.836;6.376;2024-02-23T02:17:18;98654.94;;;4.91;83.94
55456;BME280;63021;52.836;6.376;2024-02-23T02:19:48;98658.09;;;4.94;83.65
55456;BME280;63021;52.836;6.376;2024-02-23T02:22:13;98667.16;;;5.00;84.09
55456;BME280;63021;52.836;6.376;2024-02-23T02:24:39;98641.44;;;4.94;83.90
55456;BME280;63021;52.836;6.376;2024-02-23T02:27:06;98669.94;;;5.07;84.00
55456;BME280;63021;52.836;6.376;2024-02-23T02:29:32;98689.72;;;5.11;83.46
55456;BME280;63021;52.836;6.376;2024-02-23T02:32:00;98668.28;;;5.06;83.53
55456;BME280;63021;52.836;6.376;2024-02-23T02:34:25;98698.97;;;5.15;83.24
55456;BME280;63021;52.836;6.376;2024-02-23T02:36:51;98669.94;;;5.15;83.28
55456;BME280;63021;52.836;6.376;2024-02-23T02:39:16;98686.41;;;5.17;83.08
55456;BME280;63021;52.836;6.376;2024-02-23T02:41:42;98688.72;;;5.20;82.95
55456;BME280;63021;52.836;6.376;2024-02-23T02:44:07;98696.50;;;5.22;82.91
55456;BME280;63021;52.836;6.376;2024-02-23T02:46:35;98701.09;;;5.19;82.20
55456;BME280;63021;52.836;6.376;2024-02-23T02:49:00;98695.19;;;5.17;82.21
55456;BME280;63021;52.836;6.376;2024-02-23T02:51:26;98699.94;;;5.22;82.05
55456;BME280;63021;52.836;6.376;2024-02-23T02:53:51;98701.09;;;5.19;81.52
55456;BME280;63021;52.836;6.376;2024-02-23T02:56:16;98705.06;;;5.15;81.61
55456;BME280;63021;52.836;6.376;2024-02-23T02:58:42;98715.25;;;5.18;81.83
55456;BME280;63021;52.836;6.376;2024-02-23T03:01:07;98712.78;;;5.17;81.52
55456;BME280;63021;52.836;6.376;2024-02-23T03:03:34;98713.81;;;5.16;81.22
55456;BME280;63021;52.836;6.376;2024-02-23T03:05:59;98731.44;;;5.15;80.90
55456;BME280;63021;52.836;6.376;2024-02-23T03:08:25;98716.75;;;5.13;81.32
55456;BME280;63021;52.836;6.376;2024-02-23T03:10:51;98721.22;;;5.12;80.26
55456;BME280;63021;52.836;6.376;2024-02-23T03:13:16;98722.19;;;5.11;80.40
55456;BME280;63021;52.836;6.376;2024-02-23T03:15:42;98720.41;;;5.12;80.06
55456;BME280;63021;52.836;6.376;2024-02-23T03:18:07;98741.34;;;5.13;80.11
55456;BME280;63021;52.836;6.376;2024-02-23T03:20:34;98736.22;;;5.12;80.59
55456;BME280;63021;52.836;6.376;2024-02-23T03:23:00;98741.50;;;5.12;79.95
55456;BME280;63021;52.836;6.376;2024-02-23T03:25:28;98759.78;;;5.13;80.10
55456;BME280;63021;52.836;6.376;2024-02-23T03:27:54;98760.59;;;5.14;80.04
55456;BME280;63021;52.836;6.376;2024-02-23T03:30:19;98751.19;;;5.11;79.85
55456;BME280;63021;52.836;6.376;2024-02-23T03:32:45;98748.41;;;5.13;80.08
55456;BME280;63021;52.836;6.376;2024-02-23T03:35:12;98752.22;;;5.10;79.99
55456;BME280;63021;52.836;6.376;2024-02-23T03:37:38;98752.69;;;5.14;79.68
55456;BME280;63021;52.836;6.376;2024-02-23T03:40:05;98753.84;;;5.19;79.22
55456;BME280;63021;52.836;6.376;2024-02-23T03:42:30;98757.31;;;5.20;79.77
55456;BME280;63021;52.836;6.376;2024-02-23T03:44:56;98782.22;;;5.17;79.46
55456;BME280;63021;52.836;6.376;2024-02-23T03:47:21;98764.75;;;5.16;79.67
55456;BME280;63021;52.836;6.376;2024-02-23T03:49:46;98768.34;;;5.15;79.46
55456;BME280;63021;52.836;6.376;2024-02-23T03:52:12;98767.53;;;5.15;80.02
55456;BME280;63021;52.836;6.376;2024-02-23T03:54:37;98777.56;;;5.11;79.99
55456;BME280;63021;52.836;6.376;2024-02-23T03:57:03;98778.41;;;5.12;79.92
55456;BME280;63021;52.836;6.376;2024-02-23T03:59:28;98797.03;;;5.10;79.87
55456;BME280;63021;52.836;6.376;2024-02-23T04:01:54;98799.00;;;5.08;80.12
55456;BME280;63021;52.836;6.376;2024-02-23T04:04:20;98780.06;;;5.05;79.83
55456;BME280;63021;52.836;6.376;2024-02-23T04:06:45;98791.59;;;5.03;79.69
55456;BME280;63021;52.836;6.376;2024-02-23T04:09:11;98788.28;;;5.01;80.07
55456;BME280;63021;52.836;6.376;2024-02-23T04:11:36;98798.00;;;5.01;79.95
55456;BME280;63021;52.836;6.376;2024-02-23T04:14:02;98800.16;;;4.97;79.99
55456;BME280;63021;52.836;6.376;2024-02-23T04:16:30;98800.47;;;4.94;79.68
55456;BME280;63021;52.836;6.376;2024-02-23T04:18:56;98821.88;;;4.91;79.99
55456;BME280;63021;52.836;6.376;2024-02-23T04:21:22;98806.38;;;4.88;79.92
55456;BME280;63021;52.836;6.376;2024-02-23T04:23:47;98814.59;;;4.85;79.79
55456;BME280;63021;52.836;6.376;2024-02-23T04:26:13;98817.22;;;4.77;79.96
55456;BME280;63021;52.836;6.376;2024-02-23T04:28:39;98825.81;;;4.79;79.36
55456;BME280;63021;52.836;6.376;2024-02-23T04:31:05;98817.19;;;4.68;79.57
55456;BME280;63021;52.836;6.376;2024-02-23T04:33:30;98825.75;;;4.71;79.46
55456;BME280;63021;52.836;6.376;2024-02-23T04:35:56;98829.38;;;4.69;79.56
55456;BME280;63021;52.836;6.376;2024-02-23T04:38:21;98844.38;;;4.69;79.59
55456;BME280;63021;52.836;6.376;2024-02-23T04:40:47;98839.25;;;4.67;79.33
55456;BME280;63021;52.836;6.376;2024-02-23T04:43:12;98855.41;;;4.64;79.56
55456;BME280;63021;52.836;6.376;2024-02-23T04:45:38;98854.38;;;4.65;79.77
55456;BME280;63021;52.836;6.376;2024-02-23T04:48:03;98868.41;;;4.66;79.94
55456;BME280;63021;52.836;6.376;2024-02-23T04:50:29;98860.34;;;4.67;80.25
55456;BME280;63021;52.836;6.376;2024-02-23T04:52:54;98866.44;;;4.68;80.01
55456;BME280;63021;52.836;6.376;2024-02-23T04:55:20;98895.59;;;4.66;80.10
55456;BME280;63021;52.836;6.376;2024-02-23T04:57:45;98872.38;;;4.70;80.68
55456;BME280;63021;52.836;6.376;2024-02-23T05:00:11;98880.47;;;4.68;80.53
55456;BME280;63021;52.836;6.376;2024-02-23T05:02:36;98877.50;;;4.72;80.23
55456;BME280;63021;52.836;6.376;2024-02-23T05:05:03;98871.38;;;4.71;80.65
55456;BME280;63021;52.836;6.376;2024-02-23T05:07:33;98882.09;;;4.69;80.96
55456;BME280;63021;52.836;6.376;2024-02-23T05:09:59;98891.19;;;4.75;80.91
55456;BME280;63021;52.836;6.376;2024-02-23T05:12:25;98902.34;;;4.69;80.96
55456;BME280;63021;52.836;6.376;2024-02-23T05:14:50;98904.69;;;4.72;81.16
55456;BME280;63021;52.836;6.376;2024-02-23T05:17:16;98884.28;;;4.74;81.16
55456;BME280;63021;52.836;6.376;2024-02-23T05:19:41;98872.22;;;4.72;80.65
55456;BME280;63021;52.836;6.376;2024-02-23T05:22:06;98882.88;;;4.62;81.17
55456;BME280;63021;52.836;6.376;2024-02-23T05:24:32;98884.72;;;4.61;81.29
55456;BME280;63021;52.836;6.376;2024-02-23T05:26:57;98888.66;;;4.65;80.96
55456;BME280;63021;52.836;6.376;2024-02-23T05:29:24;98894.56;;;4.59;80.87
55456;BME280;63021;52.836;6.376;2024-02-23T05:31:51;82260.00;;;4.56;100.00
55456;BME280;63021;52.836;6.376;2024-02-23T05:34:17;98893.91;;;4.57;81.66
55456;BME280;63021;52.836;6.376;2024-02-23T05:36:43;98881.19;;;4.53;81.12
55456;BME280;63021;52.836;6.376;2024-02-23T05:39:09;98915.47;;;4.53;81.65
55456;BME280;63021;52.836;6.376;2024-02-23T05:41:35;98895.19;;;4.53;81.36
55456;BME280;63021;52.836;6.376;2024-02-23T05:44:05;98901.28;;;4.54;81.81
55456;BME280;63021;52.836;6.376;2024-02-23T05:46:35;98910.03;;;4.54;81.58
55456;BME280;63021;52.836;6.376;2024-02-23T05:49:01;98894.22;;;4.54;81.92
55456;BME280;63021;52.836;6.376;2024-02-23T05:51:30;98902.13;;;4.54;81.66
55456;BME280;63021;52.836;6.376;2024-02-23T05:53:57;98904.91;;;4.53;81.29
55456;BME280;63021;52.836;6.376;2024-02-23T05:56:23;98906.72;;;4.52;82.00
55456;BME280;63021;52.836;6.376;2024-02-23T05:58:51;98904.38;;;4.49;81.84
55456;BME280;63021;52.836;6.376;2024-02-23T06:01:18;98911.97;;;4.52;81.95
55456;BME280;63021;52.836;6.376;2024-02-23T06:03:44;98926.44;;;4.48;81.54
55456;BME280;63021;52.836;6.376;2024-02-23T06:06:10;98918.38;;;4.49;81.70
55456;BME280;63021;52.836;6.376;2024-02-23T06:08:36;98915.75;;;4.49;82.04
55456;BME280;63021;52.836;6.376;2024-02-23T06:11:02;98914.13;;;4.48;81.99
55456;BME280;63021;52.836;6.376;2024-02-23T06:13:29;98924.50;;;4.50;81.29
55456;BME280;63021;52.836;6.376;2024-02-23T06:15:55;98941.44;;;4.47;81.52
55456;BME280;63021;52.836;6.376;2024-02-23T06:18:21;98931.06;;;4.46;81.74
55456;BME280;63021;52.836;6.376;2024-02-23T06:20:46;98931.88;;;4.46;81.09
55456;BME280;63021;52.836;6.376;2024-02-23T06:23:11;98941.59;;;4.46;81.25
55456;BME280;63021;52.836;6.376;2024-02-23T06:25:38;98941.59;;;4.46;81.61
55456;BME280;63021;52.836;6.376;2024-02-23T06:28:04;98938.97;;;4.46;81.44
55456;BME280;63021;52.836;6.376;2024-02-23T06:30:30;98967.13;;;4.45;81.54
55456;BME280;63021;52.836;6.376;2024-02-23T06:32:55;98945.19;;;4.45;81.49
55456;BME280;63021;52.836;6.376;2024-02-23T06:35:20;98945.03;;;4.46;81.52
55456;BME280;63021;52.836;6.376;2024-02-23T06:37:47;98945.19;;;4.45;81.49
55456;BME280;63021;52.836;6.376;2024-02-23T06:40:12;98947.53;;;4.48;81.48
55456;BME280;63021;52.836;6.376;2024-02-23T06:42:38;98951.00;;;4.48;81.43
55456;BME280;63021;52.836;6.376;2024-02-23T06:45:03;98948.22;;;4.50;81.88
55456;BME280;63021;52.836;6.376;2024-02-23T06:47:29;98950.69;;;4.51;81.50
55456;BME280;63021;52.836;6.376;2024-02-23T06:49:54;98972.09;;;4.48;81.34
55456;BME280;63021;52.836;6.376;2024-02-23T06:52:20;98958.28;;;4.55;81.33
55456;BME280;63021;52.836;6.376;2024-02-23T06:54:45;98960.75;;;4.56;81.27
55456;BME280;63021;52.836;6.376;2024-02-23T06:57:10;98952.63;;;4.49;81.45
55456;BME280;63021;52.836;6.376;2024-02-23T06:59:36;98953.38;;;4.60;81.85
55456;BME280;63021;52.836;6.376;2024-02-23T07:02:01;98977.75;;;4.62;81.28
55456;BME280;63021;52.836;6.376;2024-02-23T07:04:27;98948.63;;;4.63;81.77
55456;BME280;63021;52.836;6.376;2024-02-23T07:06:54;98958.19;;;4.64;81.12
55456;BME280;63021;52.836;6.376;2024-02-23T07:09:20;98967.72;;;4.65;81.35
55456;BME280;63021;52.836;6.376;2024-02-23T07:11:46;98969.38;;;4.66;80.93
55456;BME280;63021;52.836;6.376;2024-02-23T07:14:11;98973.38;;;4.71;81.18
55456;BME280;63021;52.836;6.376;2024-02-23T07:16:39;98981.28;;;4.71;81.19
55456;BME280;63021;52.836;6.376;2024-02-23T07:19:05;98977.19;;;4.76;81.22
55456;BME280;63021;52.836;6.376;2024-02-23T07:21:30;98983.13;;;4.78;80.91
55456;BME280;63021;52.836;6.376;2024-02-23T07:23:56;98985.47;;;4.81;81.33
55456;BME280;63021;52.836;6.376;2024-02-23T07:26:21;98989.75;;;4.82;80.74
55456;BME280;63021;52.836;6.376;2024-02-23T07:28:47;98984.47;;;4.82;80.91
55456;BME280;63021;52.836;6.376;2024-02-23T07:31:17;98989.31;;;4.87;80.98
55456;BME280;63021;52.836;6.376;2024-02-23T07:33:42;98988.81;;;4.92;81.02
55456;BME280;63021;52.836;6.376;2024-02-23T07:36:13;98986.84;;;4.94;80.83
55456;BME280;63021;52.836;6.376;2024-02-23T07:38:39;98990.00;;;4.97;80.66
55456;BME280;63021;52.836;6.376;2024-02-23T07:41:04;98992.34;;;5.00;80.72
55456;BME280;63021;52.836;6.376;2024-02-23T07:43:29;98990.19;;;5.04;80.67
55456;BME280;63021;52.836;6.376;2024-02-23T07:45:55;98994.50;;;5.05;80.70
55456;BME280;63021;52.836;6.376;2024-02-23T07:48:20;98995.03;;;5.09;80.34
55456;BME280;63021;52.836;6.376;2024-02-23T07:50:46;98995.84;;;5.09;81.01
55456;BME280;63021;52.836;6.376;2024-02-23T07:53:13;98986.41;;;5.07;80.14
55456;BME280;63021;52.836;6.376;2024-02-23T07:55:39;98992.06;;;5.12;80.52
55456;BME280;63021;52.836;6.376;2024-02-23T07:58:04;98987.44;;;5.14;80.23
55456;BME280;63021;52.836;6.376;2024-02-23T08:00:29;98993.69;;;5.13;80.13
55456;BME280;63021;52.836;6.376;2024-02-23T08:02:55;98967.97;;;5.07;79.71
55456;BME280;63021;52.836;6.376;2024-02-23T08:05:25;98982.69;;;5.17;80.17
55456;BME280;63021;52.836;6.376;2024-02-23T08:07:50;99002.94;;;5.17;80.21
55456;BME280;63021;52.836;6.376;2024-02-23T08:10:16;98998.97;;;5.13;79.78
55456;BME280;63021;52.836;6.376;2024-02-23T08:12:41;98994.06;;;5.18;79.70
55456;BME280;63021;52.836;6.376;2024-02-23T08:15:07;98993.75;;;5.21;79.73
55456;BME280;63021;52.836;6.376;2024-02-23T08:17:32;99011.56;;;5.19;79.77
55456;BME280;63021;52.836;6.376;2024-02-23T08:19:58;98994.44;;;5.23;79.52
55456;BME280;63021;52.836;6.376;2024-02-23T08:22:23;98989.00;;;5.25;79.43
55456;BME280;63021;52.836;6.376;2024-02-23T08:24:49;98990.63;;;5.26;79.14
55456;BME280;63021;52.836;6.376;2024-02-23T08:27:14;98995.44;;;5.30;79.13
55456;BME280;63021;52.836;6.376;2024-02-23T08:29:40;98978.13;;;5.28;79.21
55456;BME280;63021;52.836;6.376;2024-02-23T08:32:06;98980.28;;;5.32;78.98
55456;BME280;63021;52.836;6.376;2024-02-23T08:34:32;98980.44;;;5.31;79.12
55456;BME280;63021;52.836;6.376;2024-02-23T08:36:57;98961.97;;;5.31;78.94
55456;BME280;63021;52.836;6.376;2024-02-23T08:39:22;98966.25;;;5.32;78.98
55456;BME280;63021;52.836;6.376;2024-02-23T08:41:48;98950.75;;;5.37;79.06
55456;BME280;63021;52.836;6.376;2024-02-23T08:44:13;98948.13;;;5.29;78.50
55456;BME280;63021;52.836;6.376;2024-02-23T08:46:39;98954.91;;;5.40;78.66
55456;BME280;63021;52.836;6.376;2024-02-23T08:49:05;98947.34;;;5.45;78.91
55456;BME280;63021;52.836;6.376;2024-02-23T08:51:30;98933.47;;;5.43;79.10
55456;BME280;63021;52.836;6.376;2024-02-23T08:53:56;98936.13;;;5.51;78.46
55456;BME280;63021;52.836;6.376;2024-02-23T08:56:22;98934.81;;;5.55;78.21
55456;BME280;63021;52.836;6.376;2024-02-23T08:58:48;98936.00;;;5.61;78.56
55456;BME280;63021;52.836;6.376;2024-02-23T09:01:13;98925.59;;;5.67;78.19
55456;BME280;63021;52.836;6.376;2024-02-23T09:03:38;98927.59;;;5.73;78.47
55456;BME280;63021;52.836;6.376;2024-02-23T09:06:04;98938.16;;;5.82;78.11
55456;BME280;63021;52.836;6.376;2024-02-23T09:08:29;98930.56;;;5.87;78.27
55456;BME280;63021;52.836;6.376;2024-02-23T09:10:55;98928.28;;;6.00;77.67
55456;BME280;63021;52.836;6.376;2024-02-23T09:13:20;98931.94;;;6.07;77.73
55456;BME280;63021;52.836;6.376;2024-02-23T09:15:46;98934.91;;;6.13;77.37
55456;BME280;63021;52.836;6.376;2024-02-23T09:18:11;98943.19;;;6.18;76.86
55456;BME280;63021;52.836;6.376;2024-02-23T09:20:37;98940.84;;;6.23;77.05
55456;BME280;63021;52.836;6.376;2024-02-23T09:23:02;98930.78;;;6.27;76.54
55456;BME280;63021;52.836;6.376;2024-02-23T09:25:28;98952.41;;;6.30;76.12
55456;BME280;63021;52.836;6.376;2024-02-23T09:27:57;98926.66;;;6.32;76.16
55456;BME280;63021;52.836;6.376;2024-02-23T09:30:22;98934.59;;;6.32;75.99
55456;BME280;63021;52.836;6.376;2024-02-23T09:32:47;98941.84;;;6.30;75.57
55456;BME280;63021;52.836;6.376;2024-02-23T09:35:13;98929.13;;;6.26;75.39
55456;BME280;63021;52.836;6.376;2024-02-23T09:37:39;98934.59;;;6.32;75.09
55456;BME280;63021;52.836;6.376;2024-02-23T09:40:05;98927.47;;;6.33;75.46
55456;BME280;63021;52.836;6.376;2024-02-23T09:42:31;98938.38;;;6.38;74.70
55456;BME280;63021;52.836;6.376;2024-02-23T09:44:59;98940.84;;;6.39;74.65
55456;BME280;63021;52.836;6.376;2024-02-23T09:47:28;98933.91;;;6.38;74.60
55456;BME280;63021;52.836;6.376;2024-02-23T09:49:54;98929.94;;;6.43;74.91
55456;BME280;63021;52.836;6.376;2024-02-23T09:52:21;98931.75;;;6.50;74.61
55456;BME280;63021;52.836;6.376;2024-02-23T09:54:47;98947.94;;;6.55;74.62
55456;BME280;63021;52.836;6.376;2024-02-23T09:57:13;98949.25;;;6.59;74.15
55456;BME280;63021;52.836;6.376;2024-02-23T09:59:39;98944.78;;;6.68;74.54
55456;BME280;63021;52.836;6.376;2024-02-23T10:02:07;98941.44;;;6.74;74.06
55456;BME280;63021;52.836;6.376;2024-02-23T10:04:35;98946.91;;;6.81;74.44
55456;BME280;63021;52.836;6.376;2024-02-23T10:07:01;98973.66;;;6.86;74.10
55456;BME280;63021;52.836;6.376;2024-02-23T10:09:27;98948.34;;;6.84;73.96
55456;BME280;63021;52.836;6.376;2024-02-23T10:11:53;98959.44;;;6.87;73.69
55456;BME280;63021;52.836;6.376;2024-02-23T10:14:18;98959.59;;;6.86;73.42
55456;BME280;63021;52.836;6.376;2024-02-23T10:16:45;98974.81;;;6.84;73.44
55456;BME280;63021;52.836;6.376;2024-02-23T10:19:22;98954.16;;;6.71;72.87
55456;BME280;63021;52.836;6.376;2024-02-23T10:21:47;98947.59;;;6.67;73.14
55456;BME280;63021;52.836;6.376;2024-02-23T10:24:16;98960.13;;;6.73;72.83
55456;BME280;63021;52.836;6.376;2024-02-23T10:26:44;98967.09;;;6.66;72.98
55456;BME280;63021;52.836;6.376;2024-02-23T10:29:10;98986.25;;;6.68;72.98
55456;BME280;63021;52.836;6.376;2024-02-23T10:31:36;98984.59;;;6.67;72.47
55456;BME280;63021;52.836;6.376;2024-02-23T10:34:09;98974.34;;;6.64;72.85
55456;BME280;63021;52.836;6.376;2024-02-23T10:36:41;98995.34;;;6.65;72.66
55456;BME280;63021;52.836;6.376;2024-02-23T10:39:11;98989.72;;;6.60;72.28
55456;BME280;63021;52.836;6.376;2024-02-23T10:41:39;98989.09;;;6.58;72.59
55456;BME280;63021;52.836;6.376;2024-02-23T10:44:10;99005.09;;;6.56;72.41
55456;BME280;63021;52.836;6.376;2024-02-23T10:46:36;98999.78;;;6.56;72.33
55456;BME280;63021;52.836;6.376;2024-02-23T10:49:02;98989.22;;;6.56;72.59
55456;BME280;63021;52.836;6.376;2024-02-23T10:51:33;98998.00;;;6.57;72.38
55456;BME280;63021;52.836;6.376;2024-02-23T10:53:59;98998.00;;;6.57;72.49
55456;BME280;63021;52.836;6.376;2024-02-23T10:56:25;98997.50;;;6.53;72.86
55456;BME280;63021;52.836;6.376;2024-02-23T10:58:51;99019.16;;;6.65;72.72
55456;BME280;63021;52.836;6.376;2024-02-23T11:01:17;99009.22;;;6.67;73.24
55456;BME280;63021;52.836;6.376;2024-02-23T11:03:44;99011.69;;;6.69;72.75
55456;BME280;63021;52.836;6.376;2024-02-23T11:06:13;99010.53;;;6.63;72.91
55456;BME280;63021;52.836;6.376;2024-02-23T11:08:41;99011.53;;;6.62;72.87
55456;BME280;63021;52.836;6.376;2024-02-23T11:11:10;99032.34;;;6.73;73.14
55456;BME280;63021;52.836;6.376;2024-02-23T11:13:40;99019.78;;;6.75;73.21
55456;BME280;63021;52.836;6.376;2024-02-23T11:16:06;99031.19;;;6.76;72.67
55456;BME280;63021;52.836;6.376;2024-02-23T11:18:35;99019.13;;;6.73;72.58
55456;BME280;63021;52.836;6.376;2024-02-23T11:21:02;99033.66;;;6.78;73.02
55456;BME280;63021;52.836;6.376;2024-02-23T11:23:41;99023.09;;;6.78;72.50
55456;BME280;63021;52.836;6.376;2024-02-23T11:26:09;99025.09;;;6.75;72.63
55456;BME280;63021;52.836;6.376;2024-02-23T11:29:09;99006.06;;;6.64;73.00
55456;BME280;63021;52.836;6.376;2024-02-23T11:31:35;99025.44;;;6.72;72.71
55456;BME280;63021;52.836;6.376;2024-02-23T11:34:00;99030.22;;;6.77;72.63
55456;BME280;63021;52.836;6.376;2024-02-23T11:36:31;99027.38;;;6.79;72.97
55456;BME280;63021;52.836;6.376;2024-02-23T11:38:59;99027.38;;;6.79;72.95
55456;BME280;63021;52.836;6.376;2024-02-23T11:41:26;99026.88;;;6.75;72.68
55456;BME280;63021;52.836;6.376;2024-02-23T11:43:52;99032.00;;;6.76;73.15
55456;BME280;63021;52.836;6.376;2024-02-23T11:46:19;99017.97;;;6.68;73.52
55456;BME280;63021;52.836;6.376;2024-02-23T11:48:45;99047.06;;;6.76;73.11
55456;BME280;63021;52.836;6.376;2024-02-23T11:51:13;99036.31;;;6.78;73.18
55456;BME280;63021;52.836;6.376;2024-02-23T11:53:38;99043.44;;;6.77;73.07
55456;BME280;63021;52.836;6.376;2024-02-23T11:56:07;99019.78;;;6.75;73.49
55456;BME280;63021;52.836;6.376;2024-02-23T11:58:33;99028.38;;;6.78;73.38
55456;BME280;63021;52.836;6.376;2024-02-23T12:01:03;99006.91;;;6.72;73.43
55456;BME280;63021;52.836;6.376;2024-02-23T12:03:29;99027.06;;;6.82;73.06
55456;BME280;63021;52.836;6.376;2024-02-23T12:05:59;99032.00;;;6.85;72.99
55456;BME280;63021;52.836;6.376;2024-02-23T12:08:30;99042.59;;;6.85;73.15
55456;BME280;63021;52.836;6.376;2024-02-23T12:10:57;99035.50;;;6.85;73.28
55456;BME280;63021;52.836;6.376;2024-02-23T12:13:26;99035.63;;;6.84;73.33
55456;BME280;63021;52.836;6.376;2024-02-23T12:15:52;99036.78;;;6.89;73.57
55456;BME280;63021;52.836;6.376;2024-02-23T12:18:23;99047.19;;;6.91;73.11
55456;BME280;63021;52.836;6.376;2024-02-23T12:20:51;99040.44;;;6.88;72.64
55456;BME280;63021;52.836;6.376;2024-02-23T12:23:17;99043.91;;;6.89;73.14
55456;BME280;63021;52.836;6.376;2024-02-23T12:26:01;99043.91;;;6.89;72.78
55456;BME280;63021;52.836;6.376;2024-02-23T12:28:26;99048.22;;;6.90;73.44
55456;BME280;63021;52.836;6.376;2024-02-23T12:30:59;99049.38;;;6.87;73.65
55456;BME280;63021;52.836;6.376;2024-02-23T12:33:36;99057.47;;;6.86;73.51
55456;BME280;63021;52.836;6.376;2024-02-23T12:36:03;99027.56;;;6.85;73.17
55456;BME280;63021;52.836;6.376;2024-02-23T12:38:29;99075.00;;;6.87;73.18
55456;BME280;63021;52.836;6.376;2024-02-23T12:40:55;99058.78;;;6.90;73.68
55456;BME280;63021;52.836;6.376;2024-02-23T12:43:21;99057.94;;;6.89;73.57
55456;BME280;63021;52.836;6.376;2024-02-23T12:45:49;99070.03;;;6.92;73.52
55456;BME280;63021;52.836;6.376;2024-02-23T12:48:15;99060.41;;;6.91;73.85
55456;BME280;63021;52.836;6.376;2024-02-23T12:50:41;99084.56;;;6.96;73.44
55456;BME280;63021;52.836;6.376;2024-02-23T12:53:08;99055.31;;;6.89;73.78
55456;BME280;63021;52.836;6.376;2024-02-23T12:55:33;99071.69;;;7.01;73.71
55456;BME280;63021;52.836;6.376;2024-02-23T12:57:59;99072.50;;;7.02;73.50
55456;BME280;63021;52.836;6.376;2024-02-23T13:00:24;99089.34;;;7.09;73.26
55456;BME280;63021;52.836;6.376;2024-02-23T13:02:50;99046.38;;;6.99;73.46
55456;BME280;63021;52.836;6.376;2024-02-23T13:05:15;99073.63;;;7.16;72.99